sensor_id;sensor_type;location;lat;lon;timestamp;P1;durP1;ratioP1;P2;durP2;ratioP2
4603;SDS011;2314;48.272;11.562;2023-03-14T00:02:13;122.30;;;2.53;;
4603;SDS011;2314;48.272;11.562;2023-03-14T00:04:40;122.83;;;2.50;;
4603;SDS011;2314;48.272;11.562;2023-03-14T00:07:07;122.70;;;2.50;;
4603;SDS011;2314;48.272;11.562;2023-03-14T00:09:36;122.53;;;2.47;;
4603;SDS011;2314;48.272;11.562;2023-03-14T00:12:03;122.80;;;2.30;;
4603;SDS011;2314;48.272;11.562;2023-03-14T00:14:31;123.07;;;2.40;;
4603;SDS011;2314;48.272;11.562;2023-03-14T00:17:00;122.67;;;2.47;;
4603;SDS011;2314;48.272;11.562;2023-03-14T00:19:27;122.80;;;2.53;;
4603;SDS011;2314;48.272;11.562;2023-03-14T00:21:54;123.07;;;2.90;;
4603;SDS011;2314;48.272;11.562;2023-03-14T00:24:21;123.63;;;2.77;;
4603;SDS011;2314;48.272;11.562;2023-03-14T00:26:48;123.17;;;2.50;;
4603;SDS011;2314;48.272;11.562;2023-03-14T00:29:15;122.40;;;2.50;;
4603;SDS011;2314;48.272;11.562;2023-03-14T00:31:42;122.70;;;2.40;;
4603;SDS011;2314;48.272;11.562;2023-03-14T00:34:10;123.47;;;2.40;;
4603;SDS011;2314;48.272;11.562;2023-03-14T00:36:37;122.97;;;2.47;;
4603;SDS011;2314;48.272;11.562;2023-03-14T00:39:04;122.30;;;2.30;;
4603;SDS011;2314;48.272;11.562;2023-03-14T00:41:31;122.07;;;2.60;;
4603;SDS011;2314;48.272;11.562;2023-03-14T00:43:58;122.77;;;2.40;;
4603;SDS011;2314;48.272;11.562;2023-03-14T00:46:25;122.03;;;2.60;;
4603;SDS011;2314;48.272;11.562;2023-03-14T00:48:52;122.87;;;2.60;;
4603;SDS011;2314;48.272;11.562;2023-03-14T00:51:20;122.87;;;2.50;;
4603;SDS011;2314;48.272;11.562;2023-03-14T00:53:47;122.30;;;2.40;;
4603;SDS011;2314;48.272;11.562;2023-03-14T00:56:14;123.07;;;2.50;;
4603;SDS011;2314;48.272;11.562;2023-03-14T00:58:41;124.87;;;2.50;;
4603;SDS011;2314;48.272;11.562;2023-03-14T01:01:09;122.10;;;2.40;;
4603;SDS011;2314;48.272;11.562;2023-03-14T01:03:39;123.10;;;2.60;;
4603;SDS011;2314;48.272;11.562;2023-03-14T01:06:07;122.40;;;2.43;;
4603;SDS011;2314;48.272;11.562;2023-03-14T01:08:37;123.07;;;2.50;;
4603;SDS011;2314;48.272;11.562;2023-03-14T01:11:05;122.60;;;2.53;;
4603;SDS011;2314;48.272;11.562;2023-03-14T01:13:34;122.67;;;2.60;;
4603;SDS011;2314;48.272;11.562;2023-03-14T01:16:02;122.73;;;2.40;;
4603;SDS011;2314;48.272;11.562;2023-03-14T01:18:32;122.60;;;2.60;;
4603;SDS011;2314;48.272;11.562;2023-03-14T01:21:00;123.00;;;2.33;;
4603;SDS011;2314;48.272;11.562;2023-03-14T01:23:27;124.30;;;2.80;;
4603;SDS011;2314;48.272;11.562;2023-03-14T01:25:56;123.30;;;2.70;;
4603;SDS011;2314;48.272;11.562;2023-03-14T01:28:23;123.30;;;2.60;;
4603;SDS011;2314;48.272;11.562;2023-03-14T01:30:49;123.40;;;2.70;;
4603;SDS011;2314;48.272;11.562;2023-03-14T01:33:16;123.10;;;2.60;;
4603;SDS011;2314;48.272;11.562;2023-03-14T01:35:43;124.00;;;2.50;;
4603;SDS011;2314;48.272;11.562;2023-03-14T01:38:11;123.57;;;2.47;;
4603;SDS011;2314;48.272;11.562;2023-03-14T01:40:41;126.67;;;2.57;;
4603;SDS011;2314;48.272;11.562;2023-03-14T01:43:14;123.87;;;2.60;;
4603;SDS011;2314;48.272;11.562;2023-03-14T01:48:55;122.57;;;2.50;;
4603;SDS011;2314;48.272;11.562;2023-03-14T01:51:29;130.20;;;2.60;;
4603;SDS011;2314;48.272;11.562;2023-03-14T01:54:06;123.60;;;2.60;;
4603;SDS011;2314;48.272;11.562;2023-03-14T01:56:38;124.60;;;2.77;;
4603;SDS011;2314;48.272;11.562;2023-03-14T01:59:09;123.30;;;2.97;;
4603;SDS011;2314;48.272;11.562;2023-03-14T02:01:37;124.67;;;2.80;;
4603;SDS011;2314;48.272;11.562;2023-03-14T02:04:08;124.87;;;2.60;;
4603;SDS011;2314;48.272;11.562;2023-03-14T02:06:42;125.40;;;2.77;;
4603;SDS011;2314;48.272;11.562;2023-03-14T02:09:16;126.93;;;3.03;;
4603;SDS011;2314;48.272;11.562;2023-03-14T02:11:43;125.30;;;2.70;;
4603;SDS011;2314;48.272;11.562;2023-03-14T02:14:16;126.10;;;2.70;;
4603;SDS011;2314;48.272;11.562;2023-03-14T02:16:52;124.70;;;2.77;;
4603;SDS011;2314;48.272;11.562;2023-03-14T02:19:21;125.27;;;3.00;;
4603;SDS011;2314;48.272;11.562;2023-03-14T02:22:14;127.67;;;3.00;;
4603;SDS011;2314;48.272;11.562;2023-03-14T02:24:43;131.77;;;2.80;;
4603;SDS011;2314;48.272;11.562;2023-03-14T02:27:19;127.90;;;2.70;;
4603;SDS011;2314;48.272;11.562;2023-03-14T02:29:51;125.90;;;2.90;;
4603;SDS011;2314;48.272;11.562;2023-03-14T02:32:21;124.70;;;2.77;;
4603;SDS011;2314;48.272;11.562;2023-03-14T02:34:51;125.27;;;2.90;;
4603;SDS011;2314;48.272;11.562;2023-03-14T02:37:23;124.47;;;3.00;;
4603;SDS011;2314;48.272;11.562;2023-03-14T02:39:54;123.87;;;2.70;;
4603;SDS011;2314;48.272;11.562;2023-03-14T02:42:23;128.27;;;3.10;;
4603;SDS011;2314;48.272;11.562;2023-03-14T02:44:51;124.50;;;2.70;;
4603;SDS011;2314;48.272;11.562;2023-03-14T02:47:22;125.07;;;2.70;;
4603;SDS011;2314;48.272;11.562;2023-03-14T02:49:55;125.20;;;2.80;;
4603;SDS011;2314;48.272;11.562;2023-03-14T02:52:28;124.87;;;2.90;;
4603;SDS011;2314;48.272;11.562;2023-03-14T02:54:55;132.03;;;2.80;;
4603;SDS011;2314;48.272;11.562;2023-03-14T02:57:23;124.20;;;2.70;;
4603;SDS011;2314;48.272;11.562;2023-03-14T02:59:50;124.57;;;2.73;;
4603;SDS011;2314;48.272;11.562;2023-03-14T03:02:17;127.20;;;2.80;;
4603;SDS011;2314;48.272;11.562;2023-03-14T03:04:44;124.97;;;3.00;;
4603;SDS011;2314;48.272;11.562;2023-03-14T03:07:11;127.47;;;2.83;;
4603;SDS011;2314;48.272;11.562;2023-03-14T03:09:38;125.27;;;2.90;;
4603;SDS011;2314;48.272;11.562;2023-03-14T03:12:05;125.97;;;2.93;;
4603;SDS011;2314;48.272;11.562;2023-03-14T03:14:34;124.20;;;2.60;;
4603;SDS011;2314;48.272;11.562;2023-03-14T03:17:02;125.10;;;2.90;;
4603;SDS011;2314;48.272;11.562;2023-03-14T03:19:29;123.87;;;2.60;;
4603;SDS011;2314;48.272;11.562;2023-03-14T03:21:57;124.43;;;2.80;;
4603;SDS011;2314;48.272;11.562;2023-03-14T03:24:24;123.87;;;2.53;;
4603;SDS011;2314;48.272;11.562;2023-03-14T03:26:52;126.10;;;2.90;;
4603;SDS011;2314;48.272;11.562;2023-03-14T03:29:19;124.17;;;2.60;;
4603;SDS011;2314;48.272;11.562;2023-03-14T03:31:48;124.87;;;2.60;;
4603;SDS011;2314;48.272;11.562;2023-03-14T03:34:15;124.23;;;2.70;;
4603;SDS011;2314;48.272;11.562;2023-03-14T03:36:42;124.70;;;2.50;;
4603;SDS011;2314;48.272;11.562;2023-03-14T03:39:09;124.77;;;2.73;;
4603;SDS011;2314;48.272;11.562;2023-03-14T03:41:36;123.70;;;2.43;;
4603;SDS011;2314;48.272;11.562;2023-03-14T03:44:03;124.20;;;2.63;;
4603;SDS011;2314;48.272;11.562;2023-03-14T03:46:30;124.67;;;2.60;;
4603;SDS011;2314;48.272;11.562;2023-03-14T03:48:59;123.47;;;2.50;;
4603;SDS011;2314;48.272;11.562;2023-03-14T03:51:26;124.00;;;2.60;;
4603;SDS011;2314;48.272;11.562;2023-03-14T03:53:54;124.47;;;2.57;;
4603;SDS011;2314;48.272;11.562;2023-03-14T03:56:22;123.97;;;2.50;;
4603;SDS011;2314;48.272;11.562;2023-03-14T03:58:49;123.47;;;2.50;;
4603;SDS011;2314;48.272;11.562;2023-03-14T04:01:16;124.20;;;2.57;;
4603;SDS011;2314;48.272;11.562;2023-03-14T04:03:43;123.00;;;2.40;;
4603;SDS011;2314;48.272;11.562;2023-03-14T04:06:12;124.57;;;2.70;;
4603;SDS011;2314;48.272;11.562;2023-03-14T04:08:39;123.60;;;2.40;;
4603;SDS011;2314;48.272;11.562;2023-03-14T04:11:08;125.40;;;2.70;;
4603;SDS011;2314;48.272;11.562;2023-03-14T04:13:35;123.20;;;2.60;;
4603;SDS011;2314;48.272;11.562;2023-03-14T04:16:02;123.23;;;2.43;;
4603;SDS011;2314;48.272;11.562;2023-03-14T04:18:29;123.57;;;2.57;;
4603;SDS011;2314;48.272;11.562;2023-03-14T04:20:57;123.70;;;2.40;;
4603;SDS011;2314;48.272;11.562;2023-03-14T04:23:25;123.60;;;2.60;;
4603;SDS011;2314;48.272;11.562;2023-03-14T04:25:52;123.13;;;2.40;;
4603;SDS011;2314;48.272;11.562;2023-03-14T04:28:19;123.47;;;2.40;;
4603;SDS011;2314;48.272;11.562;2023-03-14T04:30:46;123.37;;;2.53;;
4603;SDS011;2314;48.272;11.562;2023-03-14T04:33:14;123.40;;;2.60;;
4603;SDS011;2314;48.272;11.562;2023-03-14T04:35:42;124.20;;;2.80;;
4603;SDS011;2314;48.272;11.562;2023-03-14T04:38:09;123.10;;;2.60;;
4603;SDS011;2314;48.272;11.562;2023-03-14T04:40:38;124.47;;;2.60;;
4603;SDS011;2314;48.272;11.562;2023-03-14T04:43:06;122.83;;;2.40;;
4603;SDS011;2314;48.272;11.562;2023-03-14T04:45:34;122.40;;;2.47;;
4603;SDS011;2314;48.272;11.562;2023-03-14T04:48:01;122.57;;;2.40;;
4603;SDS011;2314;48.272;11.562;2023-03-14T04:50:29;123.77;;;2.50;;
4603;SDS011;2314;48.272;11.562;2023-03-14T04:52:56;123.10;;;2.50;;
4603;SDS011;2314;48.272;11.562;2023-03-14T04:55:23;123.10;;;2.50;;
4603;SDS011;2314;48.272;11.562;2023-03-14T04:57:51;122.50;;;2.47;;
4603;SDS011;2314;48.272;11.562;2023-03-14T05:00:18;122.80;;;2.50;;
4603;SDS011;2314;48.272;11.562;2023-03-14T05:02:45;122.73;;;2.50;;
4603;SDS011;2314;48.272;11.562;2023-03-14T05:05:12;122.60;;;2.60;;
4603;SDS011;2314;48.272;11.562;2023-03-14T05:07:40;122.77;;;2.60;;
4603;SDS011;2314;48.272;11.562;2023-03-14T05:10:07;122.90;;;2.50;;
4603;SDS011;2314;48.272;11.562;2023-03-14T05:12:35;122.87;;;2.50;;
4603;SDS011;2314;48.272;11.562;2023-03-14T05:15:04;122.17;;;2.60;;
4603;SDS011;2314;48.272;11.562;2023-03-14T05:17:33;122.30;;;2.40;;
4603;SDS011;2314;48.272;11.562;2023-03-14T05:20:00;122.10;;;2.40;;
4603;SDS011;2314;48.272;11.562;2023-03-14T05:22:32;124.30;;;2.50;;
4603;SDS011;2314;48.272;11.562;2023-03-14T05:24:59;122.43;;;2.80;;
4603;SDS011;2314;48.272;11.562;2023-03-14T05:27:26;122.27;;;2.43;;
4603;SDS011;2314;48.272;11.562;2023-03-14T05:29:53;122.77;;;2.40;;
4603;SDS011;2314;48.272;11.562;2023-03-14T05:32:21;122.43;;;2.40;;
4603;SDS011;2314;48.272;11.562;2023-03-14T05:34:49;122.23;;;2.40;;
4603;SDS011;2314;48.272;11.562;2023-03-14T05:37:16;121.70;;;2.40;;
4603;SDS011;2314;48.272;11.562;2023-03-14T05:39:43;123.47;;;2.50;;
4603;SDS011;2314;48.272;11.562;2023-03-14T05:42:10;122.20;;;2.40;;
4603;SDS011;2314;48.272;11.562;2023-03-14T05:44:37;122.90;;;2.50;;
4603;SDS011;2314;48.272;11.562;2023-03-14T05:47:04;122.60;;;2.50;;
4603;SDS011;2314;48.272;11.562;2023-03-14T05:49:32;121.93;;;2.33;;
4603;SDS011;2314;48.272;11.562;2023-03-14T05:51:59;122.70;;;2.40;;
4603;SDS011;2314;48.272;11.562;2023-03-14T05:54:26;122.60;;;2.50;;
4603;SDS011;2314;48.272;11.562;2023-03-14T05:56:53;122.70;;;2.60;;
4603;SDS011;2314;48.272;11.562;2023-03-14T05:59:20;122.47;;;2.60;;
4603;SDS011;2314;48.272;11.562;2023-03-14T06:01:47;122.67;;;2.50;;
4603;SDS011;2314;48.272;11.562;2023-03-14T06:04:14;122.67;;;2.40;;
4603;SDS011;2314;48.272;11.562;2023-03-14T06:06:42;130.90;;;2.77;;
4603;SDS011;2314;48.272;11.562;2023-03-14T06:09:09;122.43;;;2.47;;
4603;SDS011;2314;48.272;11.562;2023-03-14T06:11:36;122.70;;;2.53;;
4603;SDS011;2314;48.272;11.562;2023-03-14T06:14:03;122.20;;;2.40;;
4603;SDS011;2314;48.272;11.562;2023-03-14T06:16:30;125.70;;;2.60;;
4603;SDS011;2314;48.272;11.562;2023-03-14T06:18:57;122.57;;;2.50;;
4603;SDS011;2314;48.272;11.562;2023-03-14T06:21:24;123.10;;;2.60;;
4603;SDS011;2314;48.272;11.562;2023-03-14T06:23:53;122.97;;;2.47;;
4603;SDS011;2314;48.272;11.562;2023-03-14T06:26:20;121.17;;;2.43;;
4603;SDS011;2314;48.272;11.562;2023-03-14T06:28:48;121.80;;;2.40;;
4603;SDS011;2314;48.272;11.562;2023-03-14T06:31:15;121.17;;;2.40;;
4603;SDS011;2314;48.272;11.562;2023-03-14T06:33:43;121.50;;;2.30;;
4603;SDS011;2314;48.272;11.562;2023-03-14T06:36:10;121.83;;;2.50;;
4603;SDS011;2314;48.272;11.562;2023-03-14T06:38:37;121.27;;;2.40;;
4603;SDS011;2314;48.272;11.562;2023-03-14T06:41:05;121.97;;;2.33;;
4603;SDS011;2314;48.272;11.562;2023-03-14T06:43:34;121.20;;;2.53;;
4603;SDS011;2314;48.272;11.562;2023-03-14T06:46:01;122.30;;;2.40;;
4603;SDS011;2314;48.272;11.562;2023-03-14T06:48:28;120.70;;;2.30;;
4603;SDS011;2314;48.272;11.562;2023-03-14T06:50:55;121.07;;;2.40;;
4603;SDS011;2314;48.272;11.562;2023-03-14T06:53:22;120.90;;;2.40;;
4603;SDS011;2314;48.272;11.562;2023-03-14T06:55:49;120.33;;;2.40;;
4603;SDS011;2314;48.272;11.562;2023-03-14T06:58:17;121.10;;;2.60;;
4603;SDS011;2314;48.272;11.562;2023-03-14T07:00:44;120.80;;;2.50;;
4603;SDS011;2314;48.272;11.562;2023-03-14T07:03:12;120.47;;;2.30;;
4603;SDS011;2314;48.272;11.562;2023-03-14T07:05:57;121.50;;;3.00;;
4603;SDS011;2314;48.272;11.562;2023-03-14T07:08:41;120.70;;;2.60;;
4603;SDS011;2314;48.272;11.562;2023-03-14T07:11:08;121.10;;;2.30;;
4603;SDS011;2314;48.272;11.562;2023-03-14T07:13:37;120.60;;;2.20;;
4603;SDS011;2314;48.272;11.562;2023-03-14T07:16:05;120.60;;;2.30;;
4603;SDS011;2314;48.272;11.562;2023-03-14T07:18:33;121.20;;;2.40;;
4603;SDS011;2314;48.272;11.562;2023-03-14T07:21:02;120.00;;;2.23;;
4603;SDS011;2314;48.272;11.562;2023-03-14T07:23:30;120.50;;;2.40;;
4603;SDS011;2314;48.272;11.562;2023-03-14T07:25:57;120.60;;;2.80;;
4603;SDS011;2314;48.272;11.562;2023-03-14T07:28:24;124.07;;;4.00;;
4603;SDS011;2314;48.272;11.562;2023-03-14T07:30:53;122.57;;;3.80;;
4603;SDS011;2314;48.272;11.562;2023-03-14T07:33:20;120.90;;;2.87;;
4603;SDS011;2314;48.272;11.562;2023-03-14T07:35:47;121.93;;;3.13;;
4603;SDS011;2314;48.272;11.562;2023-03-14T07:38:15;121.27;;;2.67;;
4603;SDS011;2314;48.272;11.562;2023-03-14T07:40:43;120.37;;;2.30;;
4603;SDS011;2314;48.272;11.562;2023-03-14T07:43:10;120.43;;;2.67;;
4603;SDS011;2314;48.272;11.562;2023-03-14T07:45:37;120.30;;;2.33;;
4603;SDS011;2314;48.272;11.562;2023-03-14T07:48:05;122.37;;;2.70;;
4603;SDS011;2314;48.272;11.562;2023-03-14T07:50:32;120.53;;;2.40;;
4603;SDS011;2314;48.272;11.562;2023-03-14T07:52:59;120.30;;;2.20;;
4603;SDS011;2314;48.272;11.562;2023-03-14T07:55:26;120.27;;;2.30;;
4603;SDS011;2314;48.272;11.562;2023-03-14T07:57:53;120.23;;;2.20;;
4603;SDS011;2314;48.272;11.562;2023-03-14T08:00:21;120.53;;;2.10;;
4603;SDS011;2314;48.272;11.562;2023-03-14T08:02:48;119.70;;;2.20;;
4603;SDS011;2314;48.272;11.562;2023-03-14T08:05:16;125.10;;;2.60;;
4603;SDS011;2314;48.272;11.562;2023-03-14T08:07:43;119.97;;;2.30;;
4603;SDS011;2314;48.272;11.562;2023-03-14T08:10:10;122.17;;;2.20;;
4603;SDS011;2314;48.272;11.562;2023-03-14T08:12:40;120.47;;;2.27;;
4603;SDS011;2314;48.272;11.562;2023-03-14T08:15:08;119.67;;;2.40;;
4603;SDS011;2314;48.272;11.562;2023-03-14T08:17:36;120.57;;;2.80;;
4603;SDS011;2314;48.272;11.562;2023-03-14T08:20:03;122.80;;;2.20;;
4603;SDS011;2314;48.272;11.562;2023-03-14T08:22:35;119.97;;;2.20;;
4603;SDS011;2314;48.272;11.562;2023-03-14T08:25:02;119.77;;;2.10;;
4603;SDS011;2314;48.272;11.562;2023-03-14T08:27:30;119.27;;;2.30;;
4603;SDS011;2314;48.272;11.562;2023-03-14T08:29:57;121.33;;;2.23;;
4603;SDS011;2314;48.272;11.562;2023-03-14T08:32:24;119.57;;;2.10;;
4603;SDS011;2314;48.272;11.562;2023-03-14T08:34:52;119.73;;;2.17;;
4603;SDS011;2314;48.272;11.562;2023-03-14T08:37:19;119.27;;;2.17;;
4603;SDS011;2314;48.272;11.562;2023-03-14T08:39:47;119.30;;;2.20;;
4603;SDS011;2314;48.272;11.562;2023-03-14T08:42:14;119.87;;;2.10;;
4603;SDS011;2314;48.272;11.562;2023-03-14T08:44:41;119.80;;;2.20;;
4603;SDS011;2314;48.272;11.562;2023-03-14T08:47:08;118.87;;;1.93;;
4603;SDS011;2314;48.272;11.562;2023-03-14T08:49:35;120.40;;;2.30;;
4603;SDS011;2314;48.272;11.562;2023-03-14T08:52:02;119.47;;;2.00;;
4603;SDS011;2314;48.272;11.562;2023-03-14T08:54:30;119.30;;;1.90;;
4603;SDS011;2314;48.272;11.562;2023-03-14T08:56:59;122.10;;;2.00;;
4603;SDS011;2314;48.272;11.562;2023-03-14T08:59:26;119.63;;;2.17;;
4603;SDS011;2314;48.272;11.562;2023-03-14T09:01:53;119.43;;;2.20;;
4603;SDS011;2314;48.272;11.562;2023-03-14T09:04:20;119.30;;;2.13;;
4603;SDS011;2314;48.272;11.562;2023-03-14T09:06:48;118.77;;;2.03;;
4603;SDS011;2314;48.272;11.562;2023-03-14T09:09:15;118.77;;;2.20;;
4603;SDS011;2314;48.272;11.562;2023-03-14T09:11:42;118.40;;;2.10;;
4603;SDS011;2314;48.272;11.562;2023-03-14T09:14:10;121.30;;;2.10;;
4603;SDS011;2314;48.272;11.562;2023-03-14T09:16:37;118.77;;;2.10;;
4603;SDS011;2314;48.272;11.562;2023-03-14T09:19:04;118.67;;;2.10;;
4603;SDS011;2314;48.272;11.562;2023-03-14T09:21:31;118.77;;;2.10;;
4603;SDS011;2314;48.272;11.562;2023-03-14T09:23:58;120.00;;;2.07;;
4603;SDS011;2314;48.272;11.562;2023-03-14T09:26:25;118.07;;;2.10;;
4603;SDS011;2314;48.272;11.562;2023-03-14T09:28:52;118.47;;;2.00;;
4603;SDS011;2314;48.272;11.562;2023-03-14T09:31:21;118.10;;;2.00;;
4603;SDS011;2314;48.272;11.562;2023-03-14T09:33:49;118.37;;;2.13;;
4603;SDS011;2314;48.272;11.562;2023-03-14T09:36:16;118.97;;;2.00;;
4603;SDS011;2314;48.272;11.562;2023-03-14T09:38:43;119.20;;;2.20;;
4603;SDS011;2314;48.272;11.562;2023-03-14T09:41:12;117.87;;;2.00;;
4603;SDS011;2314;48.272;11.562;2023-03-14T09:43:42;119.50;;;2.07;;
4603;SDS011;2314;48.272;11.562;2023-03-14T09:46:11;119.13;;;2.20;;
4603;SDS011;2314;48.272;11.562;2023-03-14T09:48:41;122.50;;;2.03;;
4603;SDS011;2314;48.272;11.562;2023-03-14T09:51:11;118.37;;;2.20;;
4603;SDS011;2314;48.272;11.562;2023-03-14T09:53:41;119.00;;;2.07;;
4603;SDS011;2314;48.272;11.562;2023-03-14T09:56:11;121.70;;;2.23;;
4603;SDS011;2314;48.272;11.562;2023-03-14T09:58:42;118.37;;;2.00;;
4603;SDS011;2314;48.272;11.562;2023-03-14T10:01:16;118.17;;;2.10;;
4603;SDS011;2314;48.272;11.562;2023-03-14T10:03:50;118.00;;;1.80;;
4603;SDS011;2314;48.272;11.562;2023-03-14T10:06:25;118.83;;;2.13;;
4603;SDS011;2314;48.272;11.562;2023-03-14T10:08:54;117.77;;;2.00;;
4603;SDS011;2314;48.272;11.562;2023-03-14T10:11:22;118.00;;;2.00;;
4603;SDS011;2314;48.272;11.562;2023-03-14T10:14:01;118.37;;;2.10;;
4603;SDS011;2314;48.272;11.562;2023-03-14T10:16:32;119.37;;;2.00;;
4603;SDS011;2314;48.272;11.562;2023-03-14T10:19:04;117.57;;;2.17;;
4603;SDS011;2314;48.272;11.562;2023-03-14T10:21:36;117.83;;;2.10;;
4603;SDS011;2314;48.272;11.562;2023-03-14T10:24:16;117.73;;;2.27;;
4603;SDS011;2314;48.272;11.562;2023-03-14T10:26:48;117.27;;;2.00;;
4603;SDS011;2314;48.272;11.562;2023-03-14T10:29:16;116.70;;;1.90;;
4603;SDS011;2314;48.272;11.562;2023-03-14T10:31:48;116.27;;;1.80;;
4603;SDS011;2314;48.272;11.562;2023-03-14T10:34:23;116.70;;;1.80;;
4603;SDS011;2314;48.272;11.562;2023-03-14T10:36:53;115.63;;;1.77;;
4603;SDS011;2314;48.272;11.562;2023-03-14T10:39:30;116.27;;;1.93;;
4603;SDS011;2314;48.272;11.562;2023-03-14T10:42:12;116.90;;;2.00;;
4603;SDS011;2314;48.272;11.562;2023-03-14T10:44:46;118.30;;;2.30;;
4603;SDS011;2314;48.272;11.562;2023-03-14T10:47:21;116.77;;;1.70;;
4603;SDS011;2314;48.272;11.562;2023-03-14T10:49:52;116.47;;;2.00;;
4603;SDS011;2314;48.272;11.562;2023-03-14T10:52:20;116.50;;;1.80;;
4603;SDS011;2314;48.272;11.562;2023-03-14T10:54:53;117.03;;;1.90;;
4603;SDS011;2314;48.272;11.562;2023-03-14T10:57:23;121.53;;;2.30;;
4603;SDS011;2314;48.272;11.562;2023-03-14T10:59:51;119.07;;;2.20;;
4603;SDS011;2314;48.272;11.562;2023-03-14T11:02:32;117.90;;;2.00;;
4603;SDS011;2314;48.272;11.562;2023-03-14T11:05:28;118.87;;;1.90;;
4603;SDS011;2314;48.272;11.562;2023-03-14T11:08:01;117.63;;;1.97;;
4603;SDS011;2314;48.272;11.562;2023-03-14T11:10:34;117.53;;;2.20;;
4603;SDS011;2314;48.272;11.562;2023-03-14T11:13:08;118.30;;;1.90;;
4603;SDS011;2314;48.272;11.562;2023-03-14T11:15:46;117.17;;;1.80;;
4603;SDS011;2314;48.272;11.562;2023-03-14T11:21:27;116.90;;;1.80;;
4603;SDS011;2314;48.272;11.562;2023-03-14T11:24:09;119.60;;;1.97;;
4603;SDS011;2314;48.272;11.562;2023-03-14T11:26:55;116.60;;;1.90;;
4603;SDS011;2314;48.272;11.562;2023-03-14T11:29:32;116.30;;;1.80;;
4603;SDS011;2314;48.272;11.562;2023-03-14T11:32:10;121.87;;;1.90;;
4603;SDS011;2314;48.272;11.562;2023-03-14T11:34:42;117.10;;;1.70;;
4603;SDS011;2314;48.272;11.562;2023-03-14T11:37:20;116.90;;;1.77;;
4603;SDS011;2314;48.272;11.562;2023-03-14T11:39:55;118.00;;;1.93;;
4603;SDS011;2314;48.272;11.562;2023-03-14T11:42:28;116.73;;;1.70;;
4603;SDS011;2314;48.272;11.562;2023-03-14T11:44:57;117.87;;;2.00;;
4603;SDS011;2314;48.272;11.562;2023-03-14T11:47:26;118.00;;;2.00;;
4603;SDS011;2314;48.272;11.562;2023-03-14T11:50:00;118.00;;;2.10;;
4603;SDS011;2314;48.272;11.562;2023-03-14T11:52:36;118.27;;;1.80;;
4603;SDS011;2314;48.272;11.562;2023-03-14T11:55:10;117.70;;;1.90;;
4603;SDS011;2314;48.272;11.562;2023-03-14T11:57:39;117.57;;;1.90;;
4603;SDS011;2314;48.272;11.562;2023-03-14T12:00:12;117.87;;;1.90;;
4603;SDS011;2314;48.272;11.562;2023-03-14T12:02:44;118.17;;;1.90;;
4603;SDS011;2314;48.272;11.562;2023-03-14T12:05:27;118.20;;;1.90;;
4603;SDS011;2314;48.272;11.562;2023-03-14T12:11:17;118.87;;;2.07;;
4603;SDS011;2314;48.272;11.562;2023-03-14T12:13:59;118.07;;;1.80;;
4603;SDS011;2314;48.272;11.562;2023-03-14T12:16:34;117.23;;;1.90;;
4603;SDS011;2314;48.272;11.562;2023-03-14T12:22:13;118.23;;;2.00;;
4603;SDS011;2314;48.272;11.562;2023-03-14T12:24:53;118.07;;;2.00;;
4603;SDS011;2314;48.272;11.562;2023-03-14T12:27:40;117.67;;;2.00;;
4603;SDS011;2314;48.272;11.562;2023-03-14T12:30:31;118.83;;;2.00;;
4603;SDS011;2314;48.272;11.562;2023-03-14T12:35:59;118.33;;;1.90;;
4603;SDS011;2314;48.272;11.562;2023-03-14T12:38:41;117.73;;;1.93;;
4603;SDS011;2314;48.272;11.562;2023-03-14T12:41:21;116.57;;;1.93;;
4603;SDS011;2314;48.272;11.562;2023-03-14T12:43:53;117.67;;;1.83;;
4603;SDS011;2314;48.272;11.562;2023-03-14T12:46:22;123.23;;;1.90;;
4603;SDS011;2314;48.272;11.562;2023-03-14T12:48:55;117.30;;;2.00;;
4603;SDS011;2314;48.272;11.562;2023-03-14T12:51:34;117.07;;;1.90;;
4603;SDS011;2314;48.272;11.562;2023-03-14T12:57:01;117.27;;;1.90;;
4603;SDS011;2314;48.272;11.562;2023-03-14T12:59:46;117.40;;;1.90;;
4603;SDS011;2314;48.272;11.562;2023-03-14T13:02:24;118.27;;;1.90;;
4603;SDS011;2314;48.272;11.562;2023-03-14T13:05:04;118.37;;;1.90;;
4603;SDS011;2314;48.272;11.562;2023-03-14T13:10:38;118.27;;;2.00;;
4603;SDS011;2314;48.272;11.562;2023-03-14T13:13:19;117.80;;;1.90;;
4603;SDS011;2314;48.272;11.562;2023-03-14T13:15:53;118.93;;;1.97;;
4603;SDS011;2314;48.272;11.562;2023-03-14T13:18:26;118.07;;;1.90;;
4603;SDS011;2314;48.272;11.562;2023-03-14T13:20:59;120.93;;;2.03;;
4603;SDS011;2314;48.272;11.562;2023-03-14T13:23:33;119.40;;;2.00;;
4603;SDS011;2314;48.272;11.562;2023-03-14T13:26:03;118.33;;;2.00;;
4603;SDS011;2314;48.272;11.562;2023-03-14T13:28:39;119.87;;;2.13;;
4603;SDS011;2314;48.272;11.562;2023-03-14T13:31:23;118.37;;;2.00;;
4603;SDS011;2314;48.272;11.562;2023-03-14T13:33:59;119.23;;;2.00;;
4603;SDS011;2314;48.272;11.562;2023-03-14T13:36:28;119.10;;;2.10;;
4603;SDS011;2314;48.272;11.562;2023-03-14T13:38:57;118.80;;;2.07;;
4603;SDS011;2314;48.272;11.562;2023-03-14T13:41:26;119.17;;;2.03;;
4603;SDS011;2314;48.272;11.562;2023-03-14T13:44:00;120.27;;;2.20;;
4603;SDS011;2314;48.272;11.562;2023-03-14T13:46:33;119.40;;;2.10;;
4603;SDS011;2314;48.272;11.562;2023-03-14T13:49:04;119.57;;;2.20;;
4603;SDS011;2314;48.272;11.562;2023-03-14T13:51:36;119.90;;;2.10;;
4603;SDS011;2314;48.272;11.562;2023-03-14T13:54:13;121.20;;;2.20;;
4603;SDS011;2314;48.272;11.562;2023-03-14T13:56:43;120.87;;;2.40;;
4603;SDS011;2314;48.272;11.562;2023-03-14T13:59:25;120.67;;;2.33;;
4603;SDS011;2314;48.272;11.562;2023-03-14T14:01:55;122.67;;;2.20;;
4603;SDS011;2314;48.272;11.562;2023-03-14T14:04:26;120.17;;;2.07;;
4603;SDS011;2314;48.272;11.562;2023-03-14T14:06:56;120.33;;;2.23;;
4603;SDS011;2314;48.272;11.562;2023-03-14T14:09:26;119.90;;;2.17;;
4603;SDS011;2314;48.272;11.562;2023-03-14T14:11:58;121.07;;;2.53;;
4603;SDS011;2314;48.272;11.562;2023-03-14T14:14:32;121.17;;;2.40;;
4603;SDS011;2314;48.272;11.562;2023-03-14T14:17:04;120.93;;;2.30;;
4603;SDS011;2314;48.272;11.562;2023-03-14T14:19:35;121.40;;;2.40;;
4603;SDS011;2314;48.272;11.562;2023-03-14T14:22:04;121.30;;;2.40;;
4603;SDS011;2314;48.272;11.562;2023-03-14T14:24:32;122.00;;;2.37;;
4603;SDS011;2314;48.272;11.562;2023-03-14T14:27:02;121.57;;;2.40;;
4603;SDS011;2314;48.272;11.562;2023-03-14T14:29:41;123.07;;;2.63;;
4603;SDS011;2314;48.272;11.562;2023-03-14T14:32:11;121.97;;;2.50;;
4603;SDS011;2314;48.272;11.562;2023-03-14T14:34:42;122.40;;;2.60;;
4603;SDS011;2314;48.272;11.562;2023-03-14T14:37:21;122.97;;;2.53;;
4603;SDS011;2314;48.272;11.562;2023-03-14T14:39:51;122.70;;;2.40;;
4603;SDS011;2314;48.272;11.562;2023-03-14T14:42:21;122.70;;;2.53;;
4603;SDS011;2314;48.272;11.562;2023-03-14T14:44:56;124.10;;;2.80;;
4603;SDS011;2314;48.272;11.562;2023-03-14T14:47:25;122.90;;;2.60;;
4603;SDS011;2314;48.272;11.562;2023-03-14T14:49:55;124.47;;;2.70;;
4603;SDS011;2314;48.272;11.562;2023-03-14T14:52:34;123.97;;;2.80;;
4603;SDS011;2314;48.272;11.562;2023-03-14T14:55:12;123.90;;;3.00;;
4603;SDS011;2314;48.272;11.562;2023-03-14T14:57:48;123.30;;;2.73;;
4603;SDS011;2314;48.272;11.562;2023-03-14T15:00:20;123.40;;;2.70;;
4603;SDS011;2314;48.272;11.562;2023-03-14T15:02:49;123.07;;;2.67;;
4603;SDS011;2314;48.272;11.562;2023-03-14T15:05:20;123.30;;;2.60;;
4603;SDS011;2314;48.272;11.562;2023-03-14T15:07:50;123.20;;;2.50;;
4603;SDS011;2314;48.272;11.562;2023-03-14T15:10:18;123.27;;;2.60;;
4603;SDS011;2314;48.272;11.562;2023-03-14T15:12:47;123.93;;;2.57;;